createdAt,value
2023-04-09T00:04:56.545Z,100775.78
2023-04-09T00:09:58.829Z,100767.28
2023-04-09T00:15:01.348Z,100759.78
2023-04-09T00:20:04.533Z,100779.31
2023-04-09T00:25:07.377Z,100788.03
2023-04-09T00:30:10.116Z,100775.75
2023-04-09T00:35:13.014Z,100775.16
2023-04-09T00:40:15.392Z,100780.94
2023-04-09T00:45:17.576Z,100764.50
2023-04-09T00:50:20.864Z,100764.91
2023-04-09T00:55:23.314Z,100786.91
2023-04-09T01:00:25.915Z,100763.44
2023-04-09T01:05:39.357Z,100784.47
2023-04-09T01:10:56.117Z,100766.13
2023-04-09T01:16:02.203Z,100768.81
2023-04-09T01:21:14.730Z,100783.38
2023-04-09T01:26:28.015Z,100767.16
2023-04-09T01:31:37.124Z,100785.59
2023-04-09T01:36:41.136Z,100785.38
2023-04-09T01:41:43.829Z,100779.09
2023-04-09T01:46:48.778Z,100775.75
2023-04-09T01:51:51.484Z,100755.78
2023-04-09T01:56:53.571Z,100757.84
2023-04-09T02:02:06.774Z,100733.69
2023-04-09T02:07:18.024Z,100773.81
2023-04-09T02:12:22.043Z,100760.28
2023-04-09T02:17:24.349Z,100760.22
2023-04-09T02:22:26.538Z,100739.47
2023-04-09T02:27:28.643Z,100771.47
2023-04-09T02:32:30.779Z,100764.53
2023-04-09T02:37:32.903Z,100760.22
2023-04-09T02:42:35.172Z,100742.56
2023-04-09T02:47:37.420Z,100733.56
2023-04-09T02:52:39.699Z,100753.28
2023-04-09T02:57:42.362Z,100756.34
2023-04-09T03:02:44.797Z,100748.66
2023-04-09T03:07:47.757Z,100728.09
2023-04-09T03:12:49.869Z,100739.28
2023-04-09T03:17:52.078Z,100737.22
2023-04-09T03:22:54.232Z,100705.34
2023-04-09T03:27:56.424Z,100737.56
2023-04-09T03:32:59.923Z,100745.53
2023-04-09T03:38:02.133Z,100765.75
2023-04-09T03:43:04.670Z,100765.38
2023-04-09T03:48:07.098Z,100743.34
2023-04-09T03:53:09.329Z,100741.63
2023-04-09T03:58:11.693Z,100751.28
2023-04-09T04:03:15.118Z,100752.91
2023-04-09T04:08:17.650Z,100753.09
2023-04-09T04:13:19.916Z,100754.28
2023-04-09T04:18:22.112Z,100769.63
2023-04-09T04:23:24.255Z,100759.66
2023-04-09T04:28:26.472Z,100766.97
2023-04-09T04:33:28.926Z,100745.09
2023-04-09T04:38:31.538Z,100768.41
2023-04-09T04:43:33.735Z,100751.81
2023-04-09T04:48:35.961Z,100760.59
2023-04-09T04:53:38.548Z,100760.72
2023-04-09T04:58:40.772Z,100772.22
2023-04-09T05:03:43.126Z,100755.81
2023-04-09T05:08:45.408Z,100746.28
2023-04-09T05:13:47.492Z,100770.81
2023-04-09T05:18:49.788Z,100751.94
2023-04-09T05:23:52.251Z,100763.22
2023-04-09T05:28:54.508Z,100772.59
2023-04-09T05:33:56.814Z,100772.16
2023-04-09T05:38:59.041Z,100795.66
2023-04-09T05:44:01.360Z,100784.66
2023-04-09T05:49:03.678Z,100792.94
2023-04-09T05:54:05.855Z,100782.38
2023-04-09T05:59:08.278Z,100791.97
2023-04-09T06:04:10.714Z,100814.06
2023-04-09T06:09:12.970Z,100797.88
2023-04-09T06:14:18.354Z,100789.78
2023-04-09T06:19:20.530Z,100803.56
2023-04-09T06:24:22.884Z,100786.34
2023-04-09T06:29:25.128Z,100807.75
2023-04-09T06:34:27.272Z,100796.28
2023-04-09T06:39:29.469Z,100805.84
2023-04-09T06:44:31.616Z,100790.28
2023-04-09T06:49:33.802Z,100799.81
2023-04-09T06:54:36.282Z,100813.94
2023-04-09T06:59:39.067Z,100815.81
2023-04-09T07:04:41.795Z,100810.00
2023-04-09T07:09:43.981Z,100796.94
2023-04-09T07:14:46.110Z,100813.53
2023-04-09T07:19:48.316Z,100820.59
2023-04-09T07:24:54.455Z,100821.41
2023-04-09T07:29:57.866Z,100838.66
2023-04-09T07:35:00.238Z,100823.69
2023-04-09T07:40:04.299Z,100831.53
2023-04-09T07:45:07.310Z,100830.69
2023-04-09T07:50:10.573Z,100817.13
2023-04-09T07:55:12.683Z,100831.63
2023-04-09T08:00:15.733Z,100849.72
2023-04-09T08:05:17.980Z,100844.91
2023-04-09T08:10:20.262Z,100846.59
2023-04-09T08:15:22.606Z,100860.94
2023-04-09T08:20:24.805Z,100848.31
2023-04-09T08:25:27.356Z,100864.28
2023-04-09T08:30:29.604Z,100865.06
2023-04-09T08:35:32.086Z,100867.56
2023-04-09T08:40:37.372Z,100852.25
2023-04-09T08:45:42.020Z,100833.53
2023-04-09T08:50:46.685Z,100837.22
2023-04-09T08:55:49.493Z,100855.50
2023-04-09T09:00:51.859Z,100855.16
2023-04-09T09:05:54.022Z,100843.25
2023-04-09T09:10:56.333Z,100826.34
2023-04-09T09:16:15.403Z,100841.50
2023-04-09T09:21:18.840Z,100832.34
2023-04-09T09:26:31.154Z,100836.84
2023-04-09T09:31:47.755Z,100829.09
2023-04-09T09:36:50.487Z,100824.34
2023-04-09T09:42:08.865Z,100813.84
2023-04-09T09:47:13.948Z,100811.84
2023-04-09T09:52:21.417Z,100811.97
2023-04-09T09:57:28.147Z,100810.31
2023-04-09T10:02:40.746Z,100806.03
2023-04-09T10:07:43.957Z,100799.75
2023-04-09T10:12:46.982Z,100797.06
2023-04-09T10:17:49.357Z,100779.28
2023-04-09T10:22:53.949Z,100775.81
2023-04-09T10:28:03.002Z,100772.97
2023-04-09T10:33:12.196Z,100783.81
2023-04-09T10:38:17.228Z,100769.22
2023-04-09T10:43:24.041Z,100742.56
2023-04-09T10:48:27.029Z,100741.25
2023-04-09T10:53:29.188Z,100740.06
2023-04-09T10:58:31.348Z,100720.00
2023-04-09T11:03:45.153Z,100719.41
2023-04-09T11:08:48.615Z,100687.63
2023-04-09T11:13:50.899Z,100687.22
2023-04-09T11:18:56.546Z,100672.88
2023-04-09T11:23:58.773Z,100695.81
2023-04-09T11:29:14.012Z,100678.38
2023-04-09T11:34:16.194Z,100672.69
2023-04-09T11:39:18.366Z,100673.31
2023-04-09T11:44:23.251Z,100674.56
2023-04-09T11:49:25.657Z,100669.13
2023-04-09T11:54:33.711Z,100659.78
2023-04-09T11:59:39.006Z,100639.41
2023-04-09T12:04:51.103Z,100623.56
2023-04-09T12:09:54.052Z,100629.75
2023-04-09T12:14:59.112Z,100617.47
2023-04-09T12:20:02.588Z,100596.81
2023-04-09T12:25:05.015Z,100608.53
2023-04-09T12:30:07.859Z,100588.09
2023-04-09T12:35:10.221Z,100591.69
2023-04-09T12:40:16.041Z,100580.38
2023-04-09T12:45:19.612Z,100584.53
2023-04-09T12:50:21.751Z,100582.56
2023-04-09T12:55:23.970Z,100573.50
2023-04-09T13:00:26.229Z,100575.06
2023-04-09T13:05:29.116Z,100565.13
2023-04-09T13:10:31.952Z,100564.63
2023-04-09T13:15:34.170Z,100562.44
2023-04-09T13:20:36.778Z,100570.94
2023-04-09T13:25:38.946Z,100535.22
2023-04-09T13:30:41.365Z,100542.16
2023-04-09T13:35:43.601Z,100549.94
2023-04-09T13:40:46.361Z,100538.09
2023-04-09T13:45:50.266Z,100546.00
2023-04-09T13:50:52.652Z,100524.09
2023-04-09T13:55:55.957Z,100543.44
2023-04-09T14:00:58.209Z,100563.00
2023-04-09T14:06:00.326Z,100545.31
2023-04-09T14:11:02.697Z,100578.88
2023-04-09T14:16:05.334Z,100579.84
2023-04-09T14:21:10.256Z,100600.94
2023-04-09T14:26:13.027Z,100659.63
2023-04-09T14:31:15.293Z,100624.75
2023-04-09T14:36:18.109Z,100617.22
2023-04-09T14:41:20.630Z,100661.66
2023-04-09T14:46:22.810Z,100661.31
2023-04-09T14:51:25.139Z,100657.41
2023-04-09T14:56:27.418Z,100629.78
2023-04-09T15:01:30.723Z,100631.50
2023-04-09T15:06:34.161Z,100624.69
2023-04-09T15:11:36.294Z,100632.59
2023-04-09T15:16:38.747Z,100630.75
2023-04-09T15:21:41.100Z,100643.19
2023-04-09T15:26:43.559Z,100638.63
2023-04-09T15:31:45.821Z,100626.19
2023-04-09T15:36:48.042Z,100600.44
2023-04-09T15:41:50.472Z,100615.16
2023-04-09T15:46:52.661Z,100620.34
2023-04-09T15:51:54.885Z,100605.63
2023-04-09T15:56:57.239Z,100580.50
2023-04-09T16:01:59.629Z,100606.25
2023-04-09T16:07:02.824Z,100607.06
2023-04-09T16:12:05.052Z,100596.69
2023-04-09T16:17:07.449Z,100598.97
2023-04-09T16:22:10.552Z,100611.41
2023-04-09T16:27:13.863Z,100604.75
2023-04-09T16:32:16.390Z,100600.00
2023-04-09T16:37:18.650Z,100621.56
2023-04-09T16:42:20.865Z,100626.06
2023-04-09T16:47:23.160Z,100625.81
2023-04-09T16:52:25.472Z,100632.50
2023-04-09T16:57:27.676Z,100639.09
2023-04-09T17:02:30.156Z,100628.06
2023-04-09T17:07:32.690Z,100626.50
2023-04-09T17:12:35.093Z,100648.16
2023-04-09T17:17:37.674Z,100630.66
2023-04-09T17:22:39.972Z,100654.50
2023-04-09T17:27:44.337Z,100635.44
2023-04-09T17:32:46.722Z,100652.91
2023-04-09T17:37:48.960Z,100657.09
2023-04-09T17:42:51.233Z,100661.84
2023-04-09T17:47:53.535Z,100661.06
2023-04-09T17:52:55.737Z,100678.53
2023-04-09T17:57:57.847Z,100682.06
2023-04-09T18:03:00.420Z,100676.41
2023-04-09T18:08:02.873Z,100669.16
2023-04-09T18:13:05.116Z,100677.66
2023-04-09T18:18:07.289Z,100701.97
2023-04-09T18:23:09.432Z,100690.66
2023-04-09T18:28:11.850Z,100676.75
2023-04-09T18:33:14.336Z,100701.44
2023-04-09T18:38:16.494Z,100692.44
2023-04-09T18:43:18.655Z,100696.88
2023-04-09T18:48:20.787Z,100711.00
2023-04-09T18:53:23.034Z,100725.19
2023-04-09T18:58:25.857Z,100728.53
2023-04-09T19:03:30.674Z,100716.31
2023-04-09T19:08:38.449Z,100705.19
2023-04-09T19:13:54.677Z,100730.03
2023-04-09T19:18:57.131Z,100716.91
2023-04-09T19:24:00.850Z,100705.91
2023-04-09T19:29:05.611Z,100728.72
2023-04-09T19:34:07.816Z,100714.53
2023-04-09T19:39:11.450Z,100719.34
2023-04-09T19:44:13.535Z,100726.63
2023-04-09T19:49:16.278Z,100719.19
2023-04-09T19:54:18.813Z,100715.03
2023-04-09T19:59:21.180Z,100719.75
2023-04-09T20:04:26.297Z,100735.94
2023-04-09T20:09:29.512Z,100716.00
2023-04-09T20:14:31.981Z,100705.09
2023-04-09T20:19:34.403Z,100710.47
2023-04-09T20:24:38.960Z,100685.50
2023-04-09T20:29:41.225Z,100709.41
2023-04-09T20:34:43.930Z,100699.25
2023-04-09T20:39:46.194Z,100695.22
2023-04-09T20:44:48.508Z,100712.66
2023-04-09T20:49:53.554Z,100697.06
2023-04-09T20:54:57.389Z,100705.16
2023-04-09T20:59:59.633Z,100694.28
2023-04-09T21:05:11.804Z,100673.78
2023-04-09T21:10:24.074Z,100674.50
2023-04-09T21:15:26.473Z,100700.50
2023-04-09T21:20:28.650Z,100672.16
2023-04-09T21:25:30.924Z,100672.22
2023-04-09T21:30:37.953Z,100691.09
2023-04-09T21:35:40.157Z,100663.38
2023-04-09T21:40:42.354Z,100698.59
2023-04-09T21:45:44.795Z,100679.69
2023-04-09T21:50:47.244Z,100665.22
2023-04-09T21:55:49.376Z,100652.56
2023-04-09T22:00:52.551Z,100679.50
2023-04-09T22:05:54.747Z,100681.53
2023-04-09T22:10:57.337Z,100662.44
2023-04-09T22:15:59.561Z,100666.97
2023-04-09T22:21:02.035Z,100646.31
2023-04-09T22:26:04.311Z,100639.19
2023-04-09T22:31:06.791Z,100644.78
2023-04-09T22:36:11.901Z,100659.75
2023-04-09T22:41:14.189Z,100607.50
2023-04-09T22:46:16.707Z,100653.50
2023-04-09T22:51:18.939Z,100650.00
2023-04-09T22:56:22.573Z,100650.31
2023-04-09T23:01:24.698Z,100623.03
2023-04-09T23:06:26.895Z,100618.91
2023-04-09T23:11:29.222Z,100637.84
2023-04-09T23:16:31.519Z,100623.91
2023-04-09T23:21:33.672Z,100606.06
2023-04-09T23:26:35.892Z,100602.16
2023-04-09T23:31:38.121Z,100602.00
2023-04-09T23:36:41.084Z,100580.63
2023-04-09T23:41:43.473Z,100574.38
2023-04-09T23:46:46.155Z,100568.09
2023-04-09T23:51:48.283Z,100572.91
2023-04-09T23:56:50.365Z,100569.06
